Los Alamitos Army Air Field
KSLI : now visible

Airfield :











YOU CAN JOIN US ON...

 
LOGIN :

Register | Disclaimer

   EN    FR    IT 

 









Legend :    VFR   Marginal VFR   IFR   Intensive IFR   Very Intensive IFR
Visi :
Ceiling :
>= 8 km
>= 3000ft
5 to 8 km
1000 to 3000 ft
1500m to 5 km
500 to 1000 ft
800 to 1500m
200 to 500 ft
< 800m
< 200 ft
Symbols :   Thunderstorms  Fog  Heavy snow  Heavy precipitations  Wind > 20 kt






- Airport Elevation : 32 ft


KSLI - Los Alamitos Army Air Field

CURRENT METAR :
  • 240458Z AUTO 33003KT 10SM CLR 12/08 A3024 RMK AO2 SLP243 T01240077

EXPIRED METARs :
  • 240358Z AUTO 31004KT 10SM CLR 12/07 A3023 RMK AO2 SLP240 T01230074
  • 240258Z AUTO 29003KT 10SM CLR 13/07 A3023 RMK AO2 SLP240 T01290069 53004

TAF TAF KSLI
Valid from the 24 at 05:00 until the 25 at 11:00 UTC


240504Z 2405/2511 18009KT 9999 FEW030 BKN040 QNH3019INS
BECMG 2412/2413 VRB06KT 4800 BR SKC QNH3020INS
BECMG 2416/2417 VRB06KT 9999 NSW SKC QNH3009INS TX20/2500Z TN11/2414Z



MET'MAP, your aeronautical weather chart ! - Copyright ORBIFLY December 2007 - Disclaimer

ORBIFLY MET'MAP TEAM :

Programming & Development : Alexandra Zaïnal
Concept & original design : Baudouin d'Aumeries
Assistance for programming : Marc-Olivier Méhu
Technical & hardware support : Manuel Goepfert

Contact : metmap@orbifly.com




SOURCES & CREDITS :

   NOAA       Earth
Advisory